Date,TemperatureHighF,TemperatureAvgF,TemperatureLowF,DewpointHighF,DewpointAvgF,DewpointLowF,HumidityHigh,HumidityAvg,HumidityLow,PressureMaxIn,PressureMinIn,WindSpeedMaxMPH,WindSpeedAvgMPH,GustSpeedMaxMPH,PrecipitationSumIn
2014-1-1,25.0,18.5,9.0,21.0,15.4,5.0,91,87,80,30.42,29.93,10,2,27,0.61
2014-1-2,34.0,18.9,3.0,18.0,9.7,-1.0,87,69,47,30.65,30.38,7,0,16,0.02
2014-1-3,36.0,27.7,17.0,17.0,10.5,2.0,71,50,33,30.37,29.67,20,6,38,0.00
2014-1-4,29.0,14.6,2.0,19.0,8.2,-99.9,90,79,53,30.11,29.57,7,1,23,0.12
2014-1-5,5.0,1.7,0.0,-1.0,-3.5,-6.0,85,78,67,30.62,30.10,3,0,21,0.01
2014-1-6,20.0,7.9,0.0,5.0,-1.5,-7.0,85,66,48,30.86,30.62,6,1,20,0.00
2014-1-7,38.0,20.5,2.0,19.0,11.2,-2.0,87,69,35,30.68,30.14,7,1,19,0.00
2014-1-8,26.0,21.2,18.0,18.0,16.4,15.0,88,82,68,30.13,30.00,2,0,7,0.02
2014-1-9,25.0,19.4,12.0,17.0,15.8,8.0,90,85,63,30.06,29.77,6,0,17,0.07
2014-1-10,17.0,13.1,8.0,15.0,9.1,3.0,90,84,74,30.26,29.80,10,2,20,0.09
2014-1-11,36.0,26.9,17.0,23.0,17.3,-99.9,90,70,48,30.36,29.77,14,5,39,0.06
2014-1-12,33.0,18.9,10.0,20.0,12.3,5.0,90,76,51,30.12,29.53,10,1,23,0.21
2014-1-13,22.0,16.2,11.0,15.0,10.6,6.0,87,79,60,30.49,30.14,9,3,24,0.02
2014-1-14,23.0,18.7,17.0,16.0,13.6,11.0,88,80,64,30.58,30.32,4,1,15,0.05
2014-1-15,33.0,22.8,17.0,16.0,11.8,7.0,79,63,46,30.56,30.30,7,2,17,0.01
2014-1-16,31.0,21.0,14.0,11.0,8.6,5.0,75,59,40,30.42,30.30,6,1,22,0.00
2014-1-17,32.0,22.8,16.0,12.0,9.4,6.0,75,57,40,30.43,30.26,4,1,11,0.00
2014-1-18,35.0,19.2,4.0,12.0,5.6,-99.9,84,59,35,30.53,30.30,2,0,8,0.00
2014-1-19,38.0,22.8,6.0,16.0,9.0,1.0,85,57,33,30.51,30.28,7,1,14,0.00
2014-1-20,35.0,24.9,13.0,11.0,7.9,3.0,64,48,36,30.50,30.24,5,1,13,0.00
2014-1-21,39.0,21.3,3.0,5.0,-3.5,-16.0,80,38,11,30.58,30.38,6,1,21,0.00
2014-1-22,38.0,23.1,5.0,10.0,-2.3,-13.0,66,35,18,30.37,30.02,3,0,11,0.00
2014-1-23,25.0,15.0,-2.0,11.0,3.1,-8.0,80,60,34,30.66,30.10,3,0,9,0.00
2014-1-24,33.0,17.8,-3.0,-2.0,-5.9,-12.0,76,38,15,30.82,30.63,3,0,10,0.00
2014-1-25,40.0,25.2,7.0,19.0,6.8,-99.9,69,48,35,30.66,30.14,2,0,10,0.00
2014-1-26,36.0,25.7,12.0,15.0,12.2,8.0,83,57,41,30.15,29.90,8,2,22,0.00
2014-1-27,25.0,20.3,9.0,18.0,13.3,6.0,90,75,55,29.98,29.74,12,3,30,0.19
2014-1-28,17.0,8.0,-1.0,6.0,-1.4,-7.0,86,66,39,30.49,29.98,8,1,17,0.01
2014-1-29,33.0,22.7,8.0,26.0,10.2,-7.0,90,60,39,30.48,29.67,10,4,28,0.05
2014-1-30,31.0,22.6,19.0,27.0,19.7,17.0,92,88,80,29.74,29.61,6,0,36,1.01
2014-1-31,25.0,18.7,13.0,21.0,15.2,9.0,89,86,79,29.76,29.61,0,0,9,0.35